createdAt,value
2023-03-23T15:58:52.980Z,14.66
2023-03-23T16:01:25.929Z,14.66
2023-03-23T16:03:55.811Z,14.62
2023-03-23T16:06:25.824Z,14.59
2023-03-23T16:08:56.006Z,14.54
2023-03-23T16:11:23.820Z,14.50
2023-03-23T16:13:50.465Z,14.49
2023-03-23T16:16:35.404Z,14.61
2023-03-23T16:19:02.062Z,14.54
2023-03-23T16:21:28.517Z,14.56
2023-03-23T16:23:56.468Z,14.53
2023-03-23T16:26:22.974Z,14.53
2023-03-23T16:28:49.615Z,14.58
2023-03-23T16:31:16.972Z,14.58
2023-03-23T16:33:43.353Z,14.58
2023-03-23T16:36:12.674Z,14.55
2023-03-23T16:38:49.293Z,14.54
2023-03-23T16:41:16.858Z,14.50
2023-03-23T16:43:43.280Z,14.50
2023-03-23T16:46:11.284Z,14.48
2023-03-23T16:48:38.155Z,14.35
2023-03-23T16:51:04.775Z,14.29
2023-03-23T16:53:32.519Z,14.24
2023-03-23T16:55:58.926Z,14.18
2023-03-23T16:58:25.484Z,14.15
2023-03-23T17:00:52.370Z,14.11
2023-03-23T17:03:19.913Z,14.04
2023-03-23T17:05:51.172Z,14.02
2023-03-23T17:08:19.374Z,14.13
2023-03-23T17:10:46.295Z,14.12
2023-03-23T17:13:13.285Z,14.18
2023-03-23T17:15:43.655Z,14.13
2023-03-23T17:18:11.716Z,14.16
2023-03-23T17:20:38.368Z,14.14
2023-03-23T17:23:04.819Z,14.13
2023-03-23T17:25:31.860Z,14.03
2023-03-23T17:28:05.553Z,14.00
2023-03-23T17:30:33.529Z,14.01
2023-03-23T17:33:00.219Z,14.01
2023-03-23T17:35:26.758Z,14.02
2023-03-23T17:37:53.182Z,14.01
2023-03-23T17:40:19.729Z,13.95
2023-03-23T17:42:47.458Z,13.88
2023-03-23T17:45:13.849Z,13.84
2023-03-23T17:47:40.351Z,13.82
2023-03-23T17:50:11.895Z,13.80
2023-03-23T17:52:38.906Z,13.82
2023-03-23T17:55:06.047Z,13.74
2023-03-23T17:57:35.308Z,13.66
2023-03-23T18:00:02.397Z,13.78
2023-03-23T18:02:28.898Z,13.76
2023-03-23T18:04:59.457Z,13.83
2023-03-23T18:07:26.283Z,13.79
2023-03-23T18:09:52.815Z,13.80
2023-03-23T18:12:19.366Z,13.74
2023-03-23T18:14:45.913Z,13.84
2023-03-23T18:17:12.359Z,13.86
2023-03-23T18:19:38.837Z,13.88
2023-03-23T18:22:05.287Z,13.85
2023-03-23T18:24:31.723Z,13.69
2023-03-23T18:27:00.105Z,13.65
2023-03-23T18:29:26.540Z,13.66
2023-03-23T18:31:53.024Z,13.57
2023-03-23T18:34:19.436Z,13.60
2023-03-23T18:36:45.875Z,13.63
2023-03-23T18:39:12.465Z,13.49
2023-03-23T18:41:39.026Z,13.44
2023-03-23T18:44:06.214Z,13.45
2023-03-23T18:46:32.706Z,13.42
2023-03-23T18:48:59.126Z,13.33
2023-03-23T18:51:26.286Z,13.27
2023-03-23T18:53:52.792Z,13.30
2023-03-23T18:56:19.221Z,13.30
2023-03-23T18:58:46.082Z,13.37
2023-03-23T19:01:15.458Z,13.28
2023-03-23T19:03:42.219Z,13.28
2023-03-23T19:06:22.796Z,13.37
2023-03-23T19:08:49.830Z,13.28
2023-03-23T19:11:16.943Z,13.29
2023-03-23T19:13:53.823Z,13.29
2023-03-23T19:16:30.993Z,13.23
2023-03-23T19:19:00.259Z,13.17
2023-03-23T19:21:29.660Z,13.20
2023-03-23T19:23:57.726Z,13.14
2023-03-23T19:26:28.778Z,13.04
2023-03-23T19:31:25.568Z,13.09
2023-03-23T19:33:53.156Z,13.04
2023-03-23T19:36:21.533Z,13.10
2023-03-23T19:38:48.329Z,13.11
2023-03-23T19:41:15.651Z,13.10
2023-03-23T19:43:43.186Z,13.19
2023-03-23T19:46:10.656Z,13.19
2023-03-23T19:48:39.114Z,13.20
2023-03-23T19:51:09.251Z,13.25
2023-03-23T19:53:35.820Z,13.30
2023-03-23T19:56:03.659Z,13.34
2023-03-23T19:58:32.358Z,13.33
2023-03-23T20:01:00.872Z,13.40
2023-03-23T20:03:27.401Z,13.44
2023-03-23T20:06:01.089Z,13.31
2023-03-23T20:08:27.762Z,13.32
2023-03-23T20:11:04.477Z,13.31
2023-03-23T20:13:31.509Z,13.21
2023-03-23T20:16:00.544Z,13.17
2023-03-23T20:18:29.112Z,13.24
2023-03-23T20:21:04.415Z,13.15
2023-03-23T20:23:31.198Z,13.21
2023-03-23T20:26:03.632Z,13.19
2023-03-23T20:28:30.848Z,13.27
2023-03-23T20:31:21.009Z,13.26
2023-03-23T20:34:00.866Z,13.21
2023-03-23T20:36:35.776Z,13.25
2023-03-23T20:39:10.603Z,13.26
2023-03-23T20:41:38.584Z,13.16
2023-03-23T20:44:06.868Z,13.15
2023-03-23T20:46:33.930Z,13.13
2023-03-23T20:49:01.058Z,13.13
2023-03-23T20:51:27.855Z,13.01
2023-03-23T20:53:54.814Z,12.96
2023-03-23T20:56:21.314Z,12.96
2023-03-23T20:58:47.813Z,13.02
2023-03-23T21:01:14.477Z,12.98
2023-03-23T21:03:41.390Z,13.02
2023-03-23T21:06:08.548Z,13.01
2023-03-23T21:08:36.517Z,13.05
2023-03-23T21:11:05.125Z,13.06
2023-03-23T21:13:31.591Z,13.01
2023-03-23T21:15:58.089Z,12.96
2023-03-23T21:18:24.606Z,12.95
2023-03-23T21:20:51.210Z,12.90
2023-03-23T21:23:19.426Z,12.98
2023-03-23T21:25:46.475Z,13.03
2023-03-23T21:28:13.575Z,12.95
2023-03-23T21:30:45.194Z,12.97
2023-03-23T21:33:13.079Z,12.92
2023-03-23T21:35:41.565Z,13.00
2023-03-23T21:38:14.269Z,12.99
2023-03-23T21:40:44.577Z,13.08
2023-03-23T21:43:14.815Z,13.06
2023-03-23T21:45:44.578Z,13.04
2023-03-23T21:48:12.526Z,12.95
2023-03-23T21:50:42.307Z,12.93
2023-03-23T21:53:12.589Z,12.90
2023-03-23T21:55:42.422Z,12.95
2023-03-23T21:58:09.584Z,12.96
2023-03-23T22:00:36.177Z,12.98
2023-03-23T22:03:04.535Z,12.86
2023-03-23T22:05:32.014Z,12.80
2023-03-23T22:07:58.483Z,12.91
2023-03-23T22:10:25.216Z,12.83
2023-03-23T22:12:55.016Z,12.77
2023-03-23T22:15:27.722Z,12.72
2023-03-23T22:17:56.482Z,12.77
2023-03-23T22:20:29.362Z,12.79
2023-03-23T22:22:56.021Z,12.68
2023-03-23T22:25:22.688Z,12.81
2023-03-23T22:27:49.614Z,12.87
2023-03-23T22:30:22.063Z,12.85
2023-03-23T22:32:49.456Z,12.79
2023-03-23T22:35:16.040Z,12.79
2023-03-23T22:37:42.509Z,12.77
2023-03-23T22:40:11.315Z,12.85
2023-03-23T22:42:37.766Z,12.73
2023-03-23T22:45:04.786Z,12.63
2023-03-23T22:47:31.545Z,12.54
2023-03-23T22:49:58.061Z,12.36
2023-03-23T22:52:24.546Z,12.52
2023-03-23T22:54:51.117Z,12.33
2023-03-23T22:57:17.634Z,12.21
2023-03-23T22:59:48.496Z,12.19
2023-03-23T23:02:15.607Z,12.14
2023-03-23T23:04:42.914Z,12.11
2023-03-23T23:07:14.355Z,12.27
2023-03-23T23:09:41.827Z,12.21
2023-03-23T23:12:09.047Z,12.39
2023-03-23T23:14:35.937Z,12.46
2023-03-23T23:17:02.647Z,12.42
2023-03-23T23:19:30.724Z,12.45
2023-03-23T23:22:01.844Z,12.48
2023-03-23T23:24:36.031Z,12.28
2023-03-23T23:27:03.575Z,12.41
2023-03-23T23:29:30.023Z,12.28
2023-03-23T23:31:57.008Z,12.21
2023-03-23T23:34:23.499Z,12.12
2023-03-23T23:36:50.128Z,12.15
2023-03-23T23:39:16.620Z,12.17
2023-03-23T23:41:43.223Z,12.28
2023-03-23T23:44:09.889Z,12.32
2023-03-23T23:46:36.490Z,12.16
2023-03-23T23:49:03.242Z,12.34
2023-03-23T23:51:29.807Z,12.26
2023-03-23T23:53:58.459Z,12.33
2023-03-23T23:56:25.668Z,12.24
2023-03-23T23:58:54.181Z,12.33
